createdAt,value
2022-10-19T00:01:21.451Z,92.67
2022-10-19T00:03:52.898Z,92.77
2022-10-19T00:06:25.644Z,93.63
2022-10-19T00:08:55.081Z,93.96
2022-10-19T00:11:24.114Z,94.51
2022-10-19T00:13:53.926Z,95.19
2022-10-19T00:16:25.629Z,94.77
2022-10-19T00:18:56.382Z,94.53
2022-10-19T00:21:24.744Z,94.61
2022-10-19T00:23:52.589Z,94.75
2022-10-19T00:26:20.658Z,94.83
2022-10-19T00:28:49.345Z,94.50
2022-10-19T00:31:18.340Z,94.79
2022-10-19T00:33:47.939Z,94.65
2022-10-19T00:36:21.173Z,94.29
2022-10-19T00:38:50.073Z,94.26
2022-10-19T00:41:22.473Z,94.22
2022-10-19T00:43:57.298Z,93.81
2022-10-19T00:46:27.712Z,93.62
2022-10-19T00:49:03.277Z,92.76
2022-10-19T00:51:36.793Z,91.50
2022-10-19T00:54:08.320Z,92.71
2022-10-19T00:56:41.451Z,93.47
2022-10-19T00:59:10.985Z,94.33
2022-10-19T01:01:38.826Z,93.57
2022-10-19T01:04:10.792Z,92.85
2022-10-19T01:06:39.751Z,94.78
2022-10-19T01:09:09.103Z,95.66
2022-10-19T01:11:52.854Z,94.22
2022-10-19T01:14:42.512Z,92.94
2022-10-19T01:17:23.257Z,92.72
2022-10-19T01:20:33.247Z,92.52
2022-10-19T01:23:46.767Z,93.39
2022-10-19T01:26:42.241Z,94.09
2022-10-19T01:29:22.792Z,94.83
2022-10-19T01:32:02.461Z,95.43
2022-10-19T01:34:42.584Z,94.75
2022-10-19T01:37:25.651Z,95.09
2022-10-19T01:40:04.169Z,95.63
2022-10-19T01:42:42.640Z,95.54
2022-10-19T01:45:19.663Z,96.61
2022-10-19T01:47:55.760Z,96.88
2022-10-19T01:50:31.572Z,96.61
2022-10-19T01:53:00.573Z,95.99
2022-10-19T01:55:30.328Z,95.22
2022-10-19T01:58:08.261Z,94.75
2022-10-19T02:00:44.033Z,95.17
2022-10-19T02:03:15.623Z,95.55
2022-10-19T02:05:46.975Z,96.22
2022-10-19T02:08:22.505Z,96.39
2022-10-19T02:10:51.212Z,95.83
2022-10-19T02:13:22.062Z,94.78
2022-10-19T02:15:56.257Z,93.71
2022-10-19T02:18:31.383Z,92.81
2022-10-19T02:21:02.208Z,92.55
2022-10-19T02:23:30.372Z,91.57
2022-10-19T02:25:59.277Z,92.90
2022-10-19T02:28:30.954Z,94.76
2022-10-19T02:31:00.121Z,94.58
2022-10-19T02:33:30.973Z,93.63
2022-10-19T02:36:00.242Z,92.91
2022-10-19T02:38:28.828Z,93.23
2022-10-19T02:41:06.929Z,93.44
2022-10-19T02:43:40.925Z,93.44
2022-10-19T02:46:16.794Z,94.10
2022-10-19T02:48:48.536Z,93.16
2022-10-19T02:51:31.897Z,93.66
2022-10-19T02:54:04.136Z,94.28
2022-10-19T02:56:35.240Z,93.97
2022-10-19T02:59:03.859Z,94.57
2022-10-19T03:01:31.607Z,94.29
2022-10-19T03:04:00.733Z,94.09
2022-10-19T03:06:28.915Z,94.90
2022-10-19T03:08:56.691Z,94.58
2022-10-19T03:11:24.496Z,95.94
2022-10-19T03:13:52.447Z,94.56
2022-10-19T03:16:20.261Z,93.34
2022-10-19T03:18:50.163Z,93.57
2022-10-19T03:21:19.802Z,93.58
2022-10-19T03:23:48.891Z,93.42
2022-10-19T03:26:17.993Z,91.69
2022-10-19T03:28:46.020Z,93.22
2022-10-19T03:31:13.828Z,92.66
2022-10-19T03:33:45.210Z,92.70
2022-10-19T03:36:22.677Z,92.11
2022-10-19T03:38:53.653Z,91.81
2022-10-19T03:41:23.494Z,90.77
2022-10-19T03:43:51.883Z,90.50
2022-10-19T03:46:21.116Z,91.62
2022-10-19T03:48:49.288Z,92.67
2022-10-19T03:51:21.964Z,93.67
2022-10-19T03:53:53.154Z,94.53
2022-10-19T03:56:24.441Z,94.68
2022-10-19T03:58:56.540Z,94.25
2022-10-19T04:01:27.549Z,94.49
2022-10-19T04:03:57.227Z,93.55
2022-10-19T04:06:30.513Z,93.20
2022-10-19T04:08:59.492Z,93.21
2022-10-19T04:11:30.218Z,93.21
2022-10-19T04:14:00.567Z,93.64
2022-10-19T04:16:32.182Z,93.16
2022-10-19T04:19:01.164Z,93.18
2022-10-19T04:21:34.478Z,93.90
2022-10-19T04:24:07.637Z,92.11
2022-10-19T04:26:40.407Z,92.40
2022-10-19T04:29:09.605Z,93.10
2022-10-19T04:31:39.147Z,93.84
2022-10-19T04:34:08.673Z,94.27
2022-10-19T04:36:45.288Z,94.75
2022-10-19T04:39:13.236Z,96.52
2022-10-19T04:41:42.050Z,96.53
2022-10-19T04:44:11.241Z,96.63
2022-10-19T04:46:39.432Z,97.03
2022-10-19T04:49:07.649Z,97.14
2022-10-19T04:51:36.805Z,95.20
2022-10-19T04:54:04.853Z,94.80
2022-10-19T04:56:34.452Z,95.08
2022-10-19T04:59:02.269Z,96.22
2022-10-19T05:01:31.143Z,95.90
2022-10-19T05:04:01.982Z,96.19
2022-10-19T05:06:31.481Z,96.53
2022-10-19T05:09:00.711Z,96.28
2022-10-19T05:11:28.796Z,97.73
2022-10-19T05:13:58.943Z,97.49
2022-10-19T05:16:26.910Z,96.93
2022-10-19T05:18:58.867Z,96.99
2022-10-19T05:21:29.450Z,96.21
2022-10-19T05:23:58.019Z,96.49
2022-10-19T05:26:30.194Z,95.87
2022-10-19T05:29:04.750Z,96.22
2022-10-19T05:31:34.548Z,95.84
2022-10-19T05:36:38.865Z,94.60
2022-10-19T05:39:11.968Z,93.91
2022-10-19T05:41:43.337Z,96.40
2022-10-19T05:44:15.652Z,95.55
2022-10-19T05:46:44.179Z,95.30
2022-10-19T05:49:15.787Z,94.56
2022-10-19T05:51:44.166Z,94.67
2022-10-19T05:54:15.869Z,96.33
2022-10-19T05:56:45.189Z,97.38
2022-10-19T05:59:17.803Z,96.01
2022-10-19T06:01:46.777Z,96.81
2022-10-19T06:06:51.186Z,97.10
2022-10-19T06:09:19.265Z,97.29
2022-10-19T06:11:48.671Z,98.56
2022-10-19T06:14:17.849Z,96.66
2022-10-19T06:17:07.197Z,95.18
2022-10-19T06:20:11.168Z,94.62
2022-10-19T06:22:52.965Z,93.37
2022-10-19T06:25:20.972Z,93.71
2022-10-19T06:27:50.244Z,94.92
2022-10-19T06:30:18.176Z,92.85
2022-10-19T06:32:45.968Z,93.87
2022-10-19T06:35:14.084Z,92.94
2022-10-19T06:37:42.359Z,93.21
2022-10-19T06:40:11.317Z,94.80
2022-10-19T06:42:40.139Z,94.41
2022-10-19T06:45:11.281Z,94.99
2022-10-19T06:47:39.239Z,94.17
2022-10-19T06:50:09.721Z,93.50
2022-10-19T06:52:40.778Z,92.94
2022-10-19T06:55:10.302Z,92.30
2022-10-19T06:57:38.797Z,92.17
2022-10-19T07:00:10.300Z,92.14
2022-10-19T07:02:39.394Z,91.57
2022-10-19T07:05:09.897Z,91.17
2022-10-19T07:07:38.077Z,90.26
2022-10-19T07:10:07.400Z,90.24
2022-10-19T07:12:35.463Z,91.27
2022-10-19T07:15:04.379Z,91.79
2022-10-19T07:17:33.731Z,92.96
2022-10-19T07:20:01.739Z,91.08
2022-10-19T07:22:29.593Z,91.60
2022-10-19T07:24:58.239Z,91.82
2022-10-19T07:27:26.014Z,90.41
2022-10-19T07:29:53.986Z,89.08
2022-10-19T07:32:21.740Z,88.62
2022-10-19T07:34:51.150Z,89.45
2022-10-19T07:37:18.906Z,87.65
2022-10-19T07:39:46.698Z,89.20
2022-10-19T07:42:14.760Z,89.50
2022-10-19T07:44:42.525Z,91.26
2022-10-19T07:47:10.341Z,90.56
2022-10-19T07:49:38.296Z,89.77
2022-10-19T07:52:07.373Z,92.89
2022-10-19T07:54:36.773Z,90.49
2022-10-19T07:57:05.697Z,91.03
2022-10-19T07:59:34.330Z,89.07
2022-10-19T08:02:04.605Z,88.66
2022-10-19T08:04:58.909Z,87.71
2022-10-19T08:07:21.576Z,87.38
2022-10-19T08:09:54.138Z,85.33
2022-10-19T08:12:22.208Z,84.66
2022-10-19T08:14:50.213Z,83.87
2022-10-19T08:17:17.983Z,81.15
2022-10-19T08:19:49.582Z,81.44
2022-10-19T08:22:17.293Z,79.98
2022-10-19T08:24:48.855Z,78.90
2022-10-19T08:27:16.779Z,76.24
2022-10-19T08:29:44.500Z,77.52
2022-10-19T08:32:12.260Z,75.66
2022-10-19T08:34:40.281Z,76.28
2022-10-19T08:37:19.797Z,74.18
2022-10-19T08:39:57.446Z,74.89
2022-10-19T08:42:43.140Z,72.49
2022-10-19T08:45:38.666Z,72.89
2022-10-19T08:48:27.050Z,73.58
2022-10-19T08:50:58.090Z,73.26
2022-10-19T08:53:37.475Z,71.40
2022-10-19T08:56:49.507Z,71.83
2022-10-19T08:59:27.744Z,71.25
2022-10-19T09:01:59.586Z,69.04
2022-10-19T09:04:35.146Z,68.82
2022-10-19T09:07:23.623Z,70.15
2022-10-19T09:09:57.945Z,70.26
2022-10-19T09:12:39.945Z,68.38
2022-10-19T09:15:14.849Z,69.15
2022-10-19T09:17:42.687Z,67.44
2022-10-19T09:20:18.572Z,68.00
2022-10-19T09:22:55.402Z,66.77
2022-10-19T09:25:25.803Z,66.41
2022-10-19T09:28:12.619Z,69.07
2022-10-19T09:30:44.352Z,67.75
2022-10-19T09:33:23.711Z,65.79
2022-10-19T09:35:55.485Z,66.20
2022-10-19T09:38:28.519Z,67.72
2022-10-19T09:40:57.810Z,64.59
2022-10-19T09:43:28.149Z,67.15
2022-10-19T09:46:13.887Z,65.74
2022-10-19T09:48:50.847Z,65.15
2022-10-19T09:51:20.538Z,67.38
2022-10-19T09:53:53.292Z,64.95
2022-10-19T09:56:24.416Z,65.77
2022-10-19T09:58:57.218Z,63.46
2022-10-19T10:01:40.140Z,63.36
2022-10-19T10:04:15.866Z,62.81
2022-10-19T10:06:47.759Z,59.64
2022-10-19T10:09:18.159Z,58.54
2022-10-19T10:11:50.512Z,58.43
2022-10-19T10:14:28.078Z,56.54
2022-10-19T10:16:57.637Z,56.79
2022-10-19T10:19:28.989Z,54.80
2022-10-19T10:21:59.236Z,53.93
2022-10-19T10:24:29.997Z,53.83
2022-10-19T10:27:02.241Z,53.24
2022-10-19T10:29:33.873Z,54.62
2022-10-19T10:32:07.800Z,55.11
2022-10-19T10:34:50.087Z,55.64
2022-10-19T10:37:24.543Z,55.92
2022-10-19T10:39:57.678Z,55.01
2022-10-19T10:42:34.970Z,55.27
2022-10-19T10:45:16.204Z,55.21
2022-10-19T10:47:48.145Z,53.68
2022-10-19T10:50:22.729Z,52.57
2022-10-19T10:53:02.152Z,52.70
2022-10-19T10:55:31.811Z,52.83
2022-10-19T10:58:16.520Z,52.87
2022-10-19T11:00:50.858Z,51.02
2022-10-19T11:03:26.463Z,51.27
2022-10-19T11:06:00.901Z,49.78
2022-10-19T11:08:39.926Z,51.05
2022-10-19T11:11:17.765Z,48.87
2022-10-19T11:13:53.131Z,48.53
2022-10-19T11:16:27.284Z,48.76
2022-10-19T11:19:10.197Z,49.31
2022-10-19T11:21:47.804Z,48.62
2022-10-19T11:24:27.785Z,49.11
2022-10-19T11:27:13.133Z,48.15
2022-10-19T11:30:07.291Z,49.60
2022-10-19T11:32:49.816Z,48.93
2022-10-19T11:35:50.618Z,49.87
2022-10-19T11:38:45.213Z,47.88
2022-10-19T11:41:30.692Z,49.74
2022-10-19T11:44:22.917Z,48.07
2022-10-19T11:47:12.136Z,49.53
2022-10-19T11:49:58.265Z,49.65
2022-10-19T11:52:41.042Z,51.53
2022-10-19T11:55:32.147Z,51.95
2022-10-19T11:58:15.662Z,50.94
2022-10-19T12:00:56.635Z,51.59
2022-10-19T12:04:01.359Z,53.07
2022-10-19T12:06:44.864Z,53.27
2022-10-19T12:09:31.400Z,53.47
2022-10-19T12:12:30.823Z,54.00
2022-10-19T12:15:24.441Z,53.87
2022-10-19T12:17:57.387Z,53.35
2022-10-19T12:20:34.761Z,51.21
2022-10-19T12:23:21.400Z,52.17
2022-10-19T12:25:50.731Z,49.81
2022-10-19T12:28:24.742Z,49.66
2022-10-19T12:30:54.532Z,49.27
2022-10-19T12:33:30.906Z,50.23
2022-10-19T12:36:19.867Z,48.45
2022-10-19T12:39:00.865Z,47.68
2022-10-19T12:41:40.635Z,47.71
2022-10-19T12:44:56.355Z,47.48
2022-10-19T12:47:26.849Z,47.88
2022-10-19T12:49:58.679Z,48.86
2022-10-19T12:52:41.004Z,47.92
2022-10-19T12:55:34.418Z,48.40
2022-10-19T12:58:06.474Z,48.93
2022-10-19T13:00:37.619Z,49.63
2022-10-19T13:03:15.302Z,50.08
2022-10-19T13:05:57.175Z,49.94
2022-10-19T13:08:32.776Z,50.39
2022-10-19T13:11:09.777Z,50.83
2022-10-19T13:14:04.313Z,50.82
2022-10-19T13:17:03.299Z,51.45
2022-10-19T13:19:31.151Z,50.13
2022-10-19T13:22:27.535Z,49.81
2022-10-19T13:25:24.007Z,49.66
2022-10-19T13:27:55.516Z,47.86
2022-10-19T13:31:06.085Z,47.73
2022-10-19T13:33:52.071Z,48.33
2022-10-19T13:36:22.066Z,47.14
2022-10-19T13:39:15.550Z,46.15
2022-10-19T13:41:53.055Z,46.37
2022-10-19T13:44:30.829Z,46.43
2022-10-19T13:50:27.297Z,45.62
2022-10-19T13:53:39.200Z,45.30
2022-10-19T13:56:42.391Z,45.46
2022-10-19T13:59:54.834Z,45.30
2022-10-19T14:03:14.947Z,45.64
2022-10-19T14:06:05.754Z,47.34
2022-10-19T14:09:10.070Z,47.94
2022-10-19T14:11:41.505Z,48.09
2022-10-19T14:14:19.865Z,48.37
2022-10-19T14:16:58.451Z,48.68
2022-10-19T14:19:33.774Z,47.37
2022-10-19T14:22:20.104Z,47.56
2022-10-19T14:24:47.887Z,47.73
2022-10-19T14:27:23.267Z,47.14
2022-10-19T14:29:53.612Z,48.03
2022-10-19T14:32:26.721Z,48.38
2022-10-19T14:35:01.042Z,49.06
2022-10-19T14:37:29.937Z,50.84
2022-10-19T14:40:02.986Z,50.86
2022-10-19T14:42:43.065Z,50.96
2022-10-19T14:45:17.521Z,51.48
2022-10-19T14:47:57.185Z,50.87
2022-10-19T14:50:40.641Z,50.32
2022-10-19T14:53:26.670Z,49.53
2022-10-19T14:55:59.464Z,49.80
2022-10-19T14:58:36.859Z,49.50
2022-10-19T15:01:05.417Z,50.66
2022-10-19T15:03:38.122Z,50.59
2022-10-19T15:06:20.998Z,51.75
2022-10-19T15:11:31.329Z,52.95
2022-10-19T15:14:05.992Z,53.24
2022-10-19T15:16:44.663Z,53.99
2022-10-19T15:19:23.241Z,54.51
2022-10-19T15:22:12.624Z,55.09
2022-10-19T15:24:56.178Z,55.57
2022-10-19T15:27:33.039Z,55.89
2022-10-19T15:30:04.734Z,56.23
2022-10-19T15:32:36.602Z,56.81
2022-10-19T15:35:31.929Z,56.61
2022-10-19T15:38:02.919Z,57.22
2022-10-19T15:40:36.221Z,57.85
2022-10-19T15:43:35.844Z,57.73
2022-10-19T15:46:06.514Z,57.70
2022-10-19T15:48:50.010Z,58.35
2022-10-19T15:51:43.208Z,58.47
2022-10-19T15:54:15.767Z,59.32
2022-10-19T15:56:46.495Z,59.34
2022-10-19T15:59:17.792Z,59.86
2022-10-19T16:01:52.575Z,60.04
2022-10-19T16:04:24.047Z,60.65
2022-10-19T16:06:53.230Z,60.60
2022-10-19T16:09:24.620Z,61.37
2022-10-19T16:11:56.790Z,61.15
2022-10-19T16:14:26.794Z,61.98
2022-10-19T16:16:55.703Z,62.77
2022-10-19T16:19:23.985Z,62.64
2022-10-19T16:21:53.075Z,63.35
2022-10-19T16:24:20.921Z,63.96
2022-10-19T16:26:48.795Z,63.89
2022-10-19T16:29:17.714Z,63.95
2022-10-19T16:31:45.528Z,64.95
2022-10-19T16:34:13.533Z,64.71
2022-10-19T16:36:41.284Z,65.28
2022-10-19T16:39:10.623Z,65.40
2022-10-19T16:44:11.894Z,66.08
2022-10-19T16:46:39.846Z,66.20
2022-10-19T16:49:07.626Z,67.14
2022-10-19T16:51:37.528Z,67.08
2022-10-19T16:54:09.194Z,67.78
2022-10-19T16:56:44.739Z,67.59
2022-10-19T16:59:16.825Z,67.49
2022-10-19T17:01:46.260Z,67.39
2022-10-19T17:04:17.914Z,68.44
2022-10-19T17:06:46.108Z,68.34
2022-10-19T17:09:41.352Z,69.08
2022-10-19T17:12:04.743Z,70.27
2022-10-19T17:14:34.131Z,70.50
2022-10-19T17:17:01.965Z,71.42
2022-10-19T17:19:30.102Z,71.80
2022-10-19T17:21:59.299Z,72.45
2022-10-19T17:24:28.076Z,72.79
2022-10-19T17:26:55.898Z,72.90
2022-10-19T17:29:26.205Z,73.14
2022-10-19T17:31:54.016Z,73.36
2022-10-19T17:34:22.785Z,74.08
2022-10-19T17:36:50.603Z,74.61
2022-10-19T17:39:25.778Z,75.43
2022-10-19T17:42:01.882Z,75.07
2022-10-19T17:44:32.719Z,75.43
2022-10-19T17:47:01.220Z,75.57
2022-10-19T17:49:29.761Z,75.74
2022-10-19T17:51:57.968Z,76.48
2022-10-19T17:54:25.908Z,76.46
2022-10-19T17:56:54.256Z,76.92
2022-10-19T17:59:30.295Z,77.57
2022-10-19T18:02:06.198Z,77.23
2022-10-19T18:07:09.186Z,77.77
2022-10-19T18:09:37.440Z,77.64
2022-10-19T18:12:07.488Z,77.96
2022-10-19T18:14:36.012Z,77.94
2022-10-19T18:17:05.841Z,78.38
2022-10-19T18:19:33.654Z,77.75
2022-10-19T18:22:01.588Z,77.61
2022-10-19T18:24:29.738Z,77.73
2022-10-19T18:26:57.899Z,77.98
2022-10-19T18:29:27.629Z,78.33
2022-10-19T18:31:55.772Z,78.00
2022-10-19T18:34:27.266Z,78.33
2022-10-19T18:36:56.872Z,78.04
2022-10-19T18:39:24.720Z,77.87
2022-10-19T18:41:56.387Z,78.03
2022-10-19T18:44:27.032Z,77.65
2022-10-19T18:46:57.554Z,77.44
2022-10-19T18:49:26.949Z,77.34
2022-10-19T18:51:56.412Z,77.35
2022-10-19T18:54:27.776Z,77.55
2022-10-19T18:56:55.942Z,77.20
2022-10-19T18:59:23.936Z,77.74
2022-10-19T19:01:52.132Z,78.13
2022-10-19T19:04:20.253Z,77.99
2022-10-19T19:06:52.705Z,78.40
2022-10-19T19:09:21.144Z,78.64
2022-10-19T19:11:49.013Z,78.61
2022-10-19T19:14:21.204Z,77.61
2022-10-19T19:16:49.269Z,78.22
2022-10-19T19:19:19.522Z,78.20
2022-10-19T19:21:49.764Z,78.37
2022-10-19T19:24:22.154Z,78.34
2022-10-19T19:26:53.050Z,78.16
2022-10-19T19:29:22.765Z,77.50
2022-10-19T19:31:55.612Z,78.18
2022-10-19T19:34:25.319Z,78.50
2022-10-19T19:36:54.610Z,78.00
2022-10-19T19:39:23.329Z,78.60
2022-10-19T19:41:52.250Z,78.33
2022-10-19T19:44:20.316Z,78.94
2022-10-19T19:46:48.489Z,78.93
2022-10-19T19:49:17.913Z,79.16
2022-10-19T19:51:45.707Z,79.16
2022-10-19T19:54:16.282Z,80.08
2022-10-19T19:56:44.024Z,79.07
2022-10-19T19:59:13.125Z,79.37
2022-10-19T20:01:41.786Z,79.73
2022-10-19T20:04:10.360Z,79.60
2022-10-19T20:06:40.564Z,80.24
2022-10-19T20:09:10.543Z,80.65
2022-10-19T20:11:42.637Z,80.94
2022-10-19T20:14:11.400Z,81.26
2022-10-19T20:16:39.430Z,81.19
2022-10-19T20:19:10.840Z,81.28
2022-10-19T20:21:40.274Z,81.48
2022-10-19T20:24:09.069Z,81.31
2022-10-19T20:26:39.966Z,81.55
2022-10-19T20:29:07.727Z,81.84
2022-10-19T20:31:40.249Z,81.62
2022-10-19T20:34:11.763Z,81.65
2022-10-19T20:36:40.048Z,81.43
2022-10-19T20:39:08.316Z,81.74
2022-10-19T20:41:40.596Z,82.33
2022-10-19T20:44:11.037Z,82.39
2022-10-19T20:46:40.222Z,82.04
2022-10-19T20:49:10.888Z,82.28
2022-10-19T20:51:39.421Z,82.65
2022-10-19T20:54:12.194Z,82.63
2022-10-19T20:56:42.719Z,82.64
2022-10-19T20:59:15.021Z,82.54
2022-10-19T21:01:46.136Z,82.13
2022-10-19T21:04:16.678Z,82.02
2022-10-19T21:06:47.212Z,83.21
2022-10-19T21:09:18.334Z,83.08
2022-10-19T21:11:52.816Z,83.37
2022-10-19T21:14:26.931Z,82.81
2022-10-19T21:16:58.292Z,82.20
2022-10-19T21:19:29.370Z,83.30
2022-10-19T21:22:03.363Z,82.80
2022-10-19T21:24:35.124Z,82.42
2022-10-19T21:27:08.945Z,83.38
2022-10-19T21:29:37.620Z,81.74
2022-10-19T21:32:05.444Z,82.72
2022-10-19T21:34:33.439Z,83.02
2022-10-19T21:37:01.830Z,83.08
2022-10-19T21:39:31.020Z,83.57
2022-10-19T21:41:58.726Z,83.37
2022-10-19T21:44:27.869Z,83.92
2022-10-19T21:46:55.622Z,84.53
2022-10-19T21:49:23.311Z,84.13
2022-10-19T21:51:55.950Z,84.73
2022-10-19T21:54:26.652Z,84.25
2022-10-19T21:56:56.516Z,85.14
2022-10-19T21:59:24.746Z,85.08
2022-10-19T22:01:56.225Z,85.52
2022-10-19T22:04:24.244Z,84.85
2022-10-19T22:06:52.177Z,85.14
2022-10-19T22:09:21.959Z,85.71
2022-10-19T22:11:49.837Z,85.97
2022-10-19T22:14:18.029Z,86.50
2022-10-19T22:16:45.845Z,86.56
2022-10-19T22:19:15.393Z,85.82
2022-10-19T22:21:43.142Z,84.89
2022-10-19T22:24:14.918Z,85.40
2022-10-19T22:26:45.367Z,85.82
2022-10-19T22:29:14.058Z,85.45
2022-10-19T22:31:43.126Z,85.75
2022-10-19T22:34:15.038Z,86.06
2022-10-19T22:36:45.233Z,86.85
2022-10-19T22:39:13.607Z,86.91
2022-10-19T22:41:41.373Z,86.58
2022-10-19T22:44:09.140Z,86.53
2022-10-19T22:46:41.102Z,87.07
2022-10-19T22:51:41.810Z,86.42
2022-10-19T22:54:11.430Z,86.16
2022-10-19T22:56:40.422Z,85.47
2022-10-19T22:59:09.534Z,85.73
2022-10-19T23:01:37.672Z,85.83
2022-10-19T23:04:05.685Z,86.80
2022-10-19T23:06:33.770Z,86.52
2022-10-19T23:09:02.244Z,86.85
2022-10-19T23:11:31.445Z,87.48
2022-10-19T23:13:59.182Z,87.76
2022-10-19T23:19:14.939Z,87.17
2022-10-19T23:21:42.653Z,86.64
2022-10-19T23:24:10.653Z,86.85
2022-10-19T23:26:39.748Z,86.99
2022-10-19T23:29:07.434Z,87.31
2022-10-19T23:31:35.243Z,87.79
2022-10-19T23:34:03.248Z,87.56
2022-10-19T23:36:31.070Z,86.73
2022-10-19T23:38:58.925Z,87.28
2022-10-19T23:41:26.918Z,86.48
2022-10-19T23:43:56.063Z,86.35
2022-10-19T23:46:23.936Z,87.24
2022-10-19T23:48:51.890Z,87.24
2022-10-19T23:51:21.842Z,86.82
2022-10-19T23:53:52.129Z,87.61
2022-10-19T23:56:22.936Z,87.88
2022-10-19T23:58:51.341Z,88.55
